Time;durP1;ratioP1;P1;durP2;ratioP2;P2;SDS_P1;SDS_P2;PMS_P1;PMS_P2;Temp;Humidity;BMP_temperature;BMP_pressure;BME280_temperature;BME280_humidity;BME280_pressure;Samples;Min_cycle;Max_cycle;Signal;HPM_P1;HPM_P2
2023/03/25 00:01:07;;;;;;;;;;;;;;;19.45;41.36;100475.66;101678;1309;74571;-82
2023/03/25 00:03:33;;;;;;;;;;;;;;;19.45;41.35;100473.01;101768;1308;75406;-82
2023/03/25 00:05:59;;;;;;;;;;;;;;;19.45;41.28;100474.44;101639;1314;62627;-82
2023/03/25 00:08:25;;;;;;;;;;;;;;;19.45;41.38;100473.20;101623;1309;62546;-82
2023/03/25 00:10:54;;;;;;;;;;;;;;;19.45;41.24;100466.02;101538;1308;63010;-82
2023/03/25 00:13:20;;;;;;;;;;;;;;;19.45;41.50;100457.85;101628;1309;76292;-81
2023/03/25 00:15:46;;;;;;;;;;;;;;;19.44;41.34;100451.29;101699;1308;62242;-82
2023/03/25 00:18:12;;;;;;;;;;;;;;;19.45;41.39;100447.14;101693;1308;62685;-81
2023/03/25 00:20:39;;;;;;;;;;;;;;;19.44;41.34;100443.45;101595;1311;62242;-82
2023/03/25 00:23:06;;;;;;;;;;;;;;;19.44;41.41;100446.80;101645;1312;62613;-82
2023/03/25 00:25:35;;;;;;;;;;;;;;;19.43;41.33;100447.36;101479;1308;62175;-82
2023/03/25 00:28:00;;;;;;;;;;;;;;;19.43;41.39;100437.04;101536;1315;62079;-83
2023/03/25 00:30:27;;;;;;;;;;;;;;;19.43;41.40;100434.02;101511;1315;62251;-82
2023/03/25 00:32:53;;;;;;;;;;;;;;;19.44;41.41;100438.09;101543;1309;62352;-82
2023/03/25 00:35:27;;;;;;;;;;;;;;;19.43;41.36;100436.86;101679;1309;62187;-81
2023/03/25 00:37:58;;;;;;;;;;;;;;;19.43;41.38;100438.10;101598;1308;62593;-82
2023/03/25 00:40:27;;;;;;;;;;;;;;;19.43;41.40;100439.91;101680;1308;72649;-81
2023/03/25 00:43:01;;;;;;;;;;;;;;;19.43;41.38;100437.75;101582;1314;75091;-82
2023/03/25 00:45:27;;;;;;;;;;;;;;;19.43;41.37;100435.81;101654;1308;62159;-81
2023/03/25 00:47:53;;;;;;;;;;;;;;;19.43;41.36;100428.86;101621;1312;62232;-82
2023/03/25 00:50:20;;;;;;;;;;;;;;;19.43;41.39;100429.03;101583;1308;62692;-82
2023/03/25 00:52:45;;;;;;;;;;;;;;;19.43;41.40;100427.98;101704;1309;62143;-82
2023/03/25 00:55:11;;;;;;;;;;;;;;;19.43;41.37;100425.27;101595;1314;62247;-82
2023/03/25 00:57:39;;;;;;;;;;;;;;;19.42;41.42;100423.18;101712;1309;63114;-83
2023/03/25 01:00:06;;;;;;;;;;;;;;;19.43;41.40;100425.48;101566;1308;62277;-81
2023/03/25 01:02:33;;;;;;;;;;;;;;;19.43;41.35;100427.24;101582;1314;75853;-82
2023/03/25 01:04:59;;;;;;;;;;;;;;;19.43;41.45;100426.20;101614;1309;62211;-82
2023/03/25 01:07:24;;;;;;;;;;;;;;;19.42;41.34;100420.16;101544;1309;62488;-83
2023/03/25 01:09:50;;;;;;;;;;;;;;;19.42;41.43;100417.49;101591;1314;62191;-82
2023/03/25 01:12:18;;;;;;;;;;;;;;;19.42;41.39;100411.77;101667;1314;62232;-82
2023/03/25 01:14:47;;;;;;;;;;;;;;;19.42;41.39;100406.80;101661;1311;62226;-82
2023/03/25 01:17:13;;;;;;;;;;;;;;;19.42;41.46;100407.48;101485;1315;62117;-82
2023/03/25 01:19:39;;;;;;;;;;;;;;;19.42;41.44;100408.23;101601;1308;62260;-82
2023/03/25 01:22:08;;;;;;;;;;;;;;;19.42;41.36;100409.31;101612;1308;75169;-82
2023/03/25 01:24:33;;;;;;;;;;;;;;;19.42;41.39;100413.42;101696;1308;63133;-82
2023/03/25 01:27:01;;;;;;;;;;;;;;;19.41;41.41;100416.11;101595;1308;62326;-81
2023/03/25 01:29:26;;;;;;;;;;;;;;;19.41;41.48;100410.42;101593;1314;62175;-82
2023/03/25 01:31:52;;;;;;;;;;;;;;;19.41;41.35;100411.66;101529;1308;62345;-82
2023/03/25 01:34:26;;;;;;;;;;;;;;;19.41;41.41;100407.77;101609;1309;62704;-81
2023/03/25 01:36:53;;;;;;;;;;;;;;;19.41;41.43;100403.98;101548;1314;62158;-83
2023/03/25 01:39:20;;;;;;;;;;;;;;;19.41;41.37;100398.30;101677;1313;73533;-81
2023/03/25 01:41:46;;;;;;;;;;;;;;;19.40;41.38;100390.48;101552;1308;63866;-82
2023/03/25 01:44:18;;;;;;;;;;;;;;;19.40;41.38;100391.39;101760;1311;62228;-81
2023/03/25 01:46:45;;;;;;;;;;;;;;;19.41;41.39;100389.77;101637;1308;62152;-81
2023/03/25 01:49:23;;;;;;;;;;;;;;;19.40;41.42;100391.95;101603;1308;73337;-82
2023/03/25 01:51:50;;;;;;;;;;;;;;;19.40;41.40;100394.42;101560;1308;75378;-82
2023/03/25 01:54:16;;;;;;;;;;;;;;;19.40;41.45;100386.04;101576;1311;62273;-81
2023/03/25 01:56:45;;;;;;;;;;;;;;;19.40;41.42;100381.41;101642;1308;63108;-82
2023/03/25 01:59:11;;;;;;;;;;;;;;;19.39;41.41;100373.80;101541;1313;73248;-81
2023/03/25 02:01:36;;;;;;;;;;;;;;;19.40;41.39;100374.83;101705;1308;62669;-82
2023/03/25 02:04:08;;;;;;;;;;;;;;;19.40;41.46;100369.29;101663;1308;62140;-82
2023/03/25 02:06:38;;;;;;;;;;;;;;;19.40;41.40;100363.61;101595;1309;62315;-82
2023/03/25 02:09:05;;;;;;;;;;;;;;;19.39;41.51;100363.27;101646;1308;73622;-82
2023/03/25 02:11:32;;;;;;;;;;;;;;;19.39;41.47;100355.77;101588;1309;76220;-82
2023/03/25 02:13:59;;;;;;;;;;;;;;;19.39;41.47;100353.45;101774;1310;62254;-82
2023/03/25 02:16:30;;;;;;;;;;;;;;;19.39;41.44;100357.71;101578;1311;62344;-81
2023/03/25 02:19:20;;;;;;;;;;;;;;;19.40;41.45;100348.26;101678;1310;73644;-83
2023/03/25 02:22:10;;;;;;;;;;;;;;;19.39;41.53;100341.31;101880;1308;75333;-82
2023/03/25 02:24:52;;;;;;;;;;;;;;;19.39;41.48;100341.33;101905;1309;62231;-82
2023/03/25 02:27:40;;;;;;;;;;;;;;;19.39;41.47;100340.27;101684;1311;62128;-82
2023/03/25 02:30:11;;;;;;;;;;;;;;;19.38;41.47;100337.64;101662;1308;72467;-81
2023/03/25 02:32:37;;;;;;;;;;;;;;;19.39;41.43;100335.84;101631;1309;74414;-82
2023/03/25 02:35:06;;;;;;;;;;;;;;;19.39;41.44;100335.08;101684;1308;62219;-82
2023/03/25 02:38:05;;;;;;;;;;;;;;;19.38;41.45;100336.02;101693;1308;62222;-82
2023/03/25 02:40:35;;;;;;;;;;;;;;;19.38;41.45;100335.84;100962;1316;72559;-81
2023/03/25 02:43:01;;;;;;;;;;;;;;;19.38;41.41;100326.39;100902;1317;75483;-81
2023/03/25 02:45:37;;;;;;;;;;;;;;;19.38;41.45;100317.48;101021;1320;62221;-82
2023/03/25 02:48:04;;;;;;;;;;;;;;;19.38;41.47;100311.29;100950;1318;62164;-82
2023/03/25 02:50:34;;;;;;;;;;;;;;;19.38;41.50;100312.16;100849;1321;72690;-82
2023/03/25 02:53:00;;;;;;;;;;;;;;;19.38;41.44;100311.63;100869;1322;75618;-82
2023/03/25 02:55:30;;;;;;;;;;;;;;;19.38;41.41;100310.91;100848;1320;62357;-82
2023/03/25 02:58:04;;;;;;;;;;;;;;;19.38;41.42;100310.73;100940;1317;62221;-82
2023/03/25 03:00:30;;;;;;;;;;;;;;;19.37;41.42;100303.63;100885;1323;72707;-81
2023/03/25 03:02:59;;;;;;;;;;;;;;;19.37;41.40;100296.67;100848;1317;62299;-82
2023/03/25 03:05:29;;;;;;;;;;;;;;;19.37;41.44;100295.79;100889;1319;62256;-82
2023/03/25 03:08:13;;;;;;;;;;;;;;;19.37;41.42;100300.27;100715;1319;62387;-81
2023/03/25 03:11:01;;;;;;;;;;;;;;;19.37;41.46;100297.62;100774;1321;72386;-81
2023/03/25 03:13:27;;;;;;;;;;;;;;;19.37;41.42;100289.39;100858;1321;76096;-81
2023/03/25 03:15:59;;;;;;;;;;;;;;;19.36;41.45;100291.92;100854;1321;62951;-81
2023/03/25 03:18:33;;;;;;;;;;;;;;;19.37;41.39;100292.79;101046;1314;62684;-81
2023/03/25 03:21:05;;;;;;;;;;;;;;;19.36;41.44;100297.26;101180;1317;73570;-82
2023/03/25 03:23:50;;;;;;;;;;;;;;;19.36;41.36;100302.29;101513;1310;75422;-81
2023/03/25 03:26:20;;;;;;;;;;;;;;;19.36;41.46;100305.66;101404;1311;62236;-83
2023/03/25 03:28:51;;;;;;;;;;;;;;;19.36;41.42;100302.66;101510;1316;62357;-81
2023/03/25 03:31:26;;;;;;;;;;;;;;;19.36;41.37;100301.58;101422;1312;73576;-83
2023/03/25 03:33:54;;;;;;;;;;;;;;;19.36;41.38;100300.88;101447;1311;75164;-81
2023/03/25 03:36:21;;;;;;;;;;;;;;;19.36;41.40;100304.81;101391;1312;62184;-81
2023/03/25 03:38:55;;;;;;;;;;;;;;;19.36;41.46;100304.45;101543;1309;62250;-82
2023/03/25 03:41:21;;;;;;;;;;;;;;;19.35;41.41;100308.95;101710;1313;72874;-82
2023/03/25 03:43:58;;;;;;;;;;;;;;;19.36;41.39;100311.27;101723;1308;62575;-82
2023/03/25 03:46:26;;;;;;;;;;;;;;;19.35;41.48;100313.64;101621;1314;62032;-81
2023/03/25 03:48:55;;;;;;;;;;;;;;;19.35;41.42;100311.99;101561;1309;63370;-83
2023/03/25 03:51:53;;;;;;;;;;;;;;;19.35;41.46;100312.57;101670;1313;71938;-82
2023/03/25 03:54:22;;;;;;;;;;;;;;;19.35;41.49;100312.58;101270;1314;76373;-83
2023/03/25 03:56:52;;;;;;;;;;;;;;;19.35;41.42;100315.77;101625;1311;63172;-82
2023/03/25 03:59:28;;;;;;;;;;;;;;;19.35;41.31;100319.90;101689;1308;62137;-84
2023/03/25 04:01:55;;;;;;;;;;;;;;;19.34;41.40;100318.85;101631;1309;73443;-83
2023/03/25 04:04:27;;;;;;;;;;;;;;;19.35;41.40;100320.08;101703;1309;62687;-83
2023/03/25 04:07:04;;;;;;;;;;;;;;;19.34;41.40;100313.52;101607;1309;62265;-82
2023/03/25 04:09:39;;;;;;;;;;;;;;;19.33;41.42;100313.39;101560;1308;62239;-82
2023/03/25 04:12:16;;;;;;;;;;;;;;;19.34;41.38;100307.48;101679;1314;72727;-82
2023/03/25 04:14:42;;;;;;;;;;;;;;;19.33;41.41;100303.92;101768;1314;75123;-82
2023/03/25 04:17:08;;;;;;;;;;;;;;;19.33;41.40;100305.36;101663;1309;62258;-81
2023/03/25 04:19:34;;;;;;;;;;;;;;;19.33;41.42;100308.08;101691;1308;62229;-82
2023/03/25 04:22:00;;;;;;;;;;;;;;;19.33;41.48;100307.53;101655;1314;62293;-82
2023/03/25 04:24:30;;;;;;;;;;;;;;;19.32;41.41;100309.88;101663;1308;62315;-83
2023/03/25 04:26:56;;;;;;;;;;;;;;;19.32;41.35;100304.71;101826;1309;63254;-83
2023/03/25 04:29:25;;;;;;;;;;;;;;;19.32;41.39;100300.97;101730;1314;62133;-83
2023/03/25 04:31:54;;;;;;;;;;;;;;;19.33;41.52;100308.98;101869;1308;72510;-83
2023/03/25 04:34:21;;;;;;;;;;;;;;;19.32;41.37;100313.29;101848;1314;75311;-82
2023/03/25 04:36:48;;;;;;;;;;;;;;;19.33;41.36;100316.48;101824;1315;62297;-83
2023/03/25 04:39:21;;;;;;;;;;;;;;;19.33;41.40;100316.30;102039;1313;63405;-83
2023/03/25 04:41:48;;;;;;;;;;;;;;;19.33;41.46;100316.05;102366;1313;72870;-82
2023/03/25 04:44:17;;;;;;;;;;;;;;;19.33;41.40;100316.09;102587;1309;76093;-82
2023/03/25 04:46:42;;;;;;;;;;;;;;;19.33;41.40;100317.30;102163;1312;62034;-82
2023/03/25 04:49:12;;;;;;;;;;;;;;;19.34;41.42;100317.27;101845;1308;62344;-83
2023/03/25 04:51:43;;;;;;;;;;;;;;;19.34;41.49;100317.96;101858;1308;72644;-83
2023/03/25 04:54:09;;;;;;;;;;;;;;;19.34;41.45;100318.52;101760;1308;75518;-83
2023/03/25 04:56:35;;;;;;;;;;;;;;;19.34;41.41;100324.40;101925;1315;62271;-82
2023/03/25 04:59:01;;;;;;;;;;;;;;;19.34;41.33;100325.80;101937;1308;62237;-83
2023/03/25 05:01:29;;;;;;;;;;;;;;;19.34;41.44;100324.38;101689;1314;62242;-83
2023/03/25 05:04:23;;;;;;;;;;;;;;;19.34;41.39;100321.16;101663;1308;62261;-82
2023/03/25 05:06:50;;;;;;;;;;;;;;;19.34;41.38;100322.42;101102;1314;62215;-83
2023/03/25 05:09:17;;;;;;;;;;;;;;;19.34;41.39;100320.80;101261;1314;62253;-82
2023/03/25 05:11:43;;;;;;;;;;;;;;;19.35;41.40;100319.53;101263;1317;72271;-83
2023/03/25 05:14:09;;;;;;;;;;;;;;;19.34;41.41;100318.11;101141;1320;62226;-83
2023/03/25 05:16:35;;;;;;;;;;;;;;;19.34;41.32;100316.35;101188;1320;62411;-84
2023/03/25 05:19:02;;;;;;;;;;;;;;;19.34;41.35;100317.05;101175;1314;62360;-81
2023/03/25 05:21:30;;;;;;;;;;;;;;;19.34;41.35;100313.33;101215;1318;62252;-84
2023/03/25 05:24:00;;;;;;;;;;;;;;;19.35;41.33;100320.23;101206;1314;62245;-83
2023/03/25 05:26:33;;;;;;;;;;;;;;;19.34;41.34;100324.54;101245;1316;62335;-83
2023/03/25 05:29:00;;;;;;;;;;;;;;;19.35;41.34;100322.04;101213;1318;62275;-84
2023/03/25 05:31:26;;;;;;;;;;;;;;;19.35;41.34;100325.95;101257;1320;72451;-83
2023/03/25 05:33:53;;;;;;;;;;;;;;;19.34;41.35;100323.66;101094;1315;62193;-83
2023/03/25 05:36:19;;;;;;;;;;;;;;;19.35;41.34;100321.99;101154;1317;62088;-83
2023/03/25 05:38:47;;;;;;;;;;;;;;;19.35;41.33;100314.17;101183;1316;62254;-83
2023/03/25 05:41:15;;;;;;;;;;;;;;;19.35;41.35;100316.13;101111;1314;73433;-83
2023/03/25 05:43:47;;;;;;;;;;;;;;;19.35;41.32;100317.90;101396;1308;76535;-82
2023/03/25 05:46:13;;;;;;;;;;;;;;;19.35;41.42;100321.32;101782;1308;62289;-83
2023/03/25 05:48:40;;;;;;;;;;;;;;;19.35;41.35;100321.30;101744;1308;62247;-83
2023/03/25 05:51:12;;;;;;;;;;;;;;;19.35;41.28;100321.67;101814;1308;72324;-83
2023/03/25 05:53:38;;;;;;;;;;;;;;;19.35;41.30;100326.27;101803;1314;75085;-84
2023/03/25 05:56:04;;;;;;;;;;;;;;;19.35;41.30;100328.78;101752;1311;62162;-82
2023/03/25 05:58:31;;;;;;;;;;;;;;;19.36;41.32;100326.96;101840;1308;62382;-82
2023/03/25 06:01:01;;;;;;;;;;;;;;;19.36;41.37;100326.42;101874;1314;62177;-83
2023/03/25 06:03:27;;;;;;;;;;;;;;;19.36;41.28;100325.35;101900;1308;76302;-83
2023/03/25 06:05:53;;;;;;;;;;;;;;;19.36;41.28;100325.48;101725;1314;62333;-83
2023/03/25 06:08:24;;;;;;;;;;;;;;;19.36;41.32;100326.38;101724;1314;62146;-83
2023/03/25 06:11:02;;;;;;;;;;;;;;;19.37;41.30;100324.91;101793;1314;72614;-82
2023/03/25 06:13:28;;;;;;;;;;;;;;;19.37;41.26;100323.98;101757;1314;76225;-83
2023/03/25 06:15:56;;;;;;;;;;;;;;;19.38;41.32;100324.30;101768;1312;62315;-83
2023/03/25 06:18:25;;;;;;;;;;;;;;;19.38;41.33;100325.19;101701;1312;62330;-83
2023/03/25 06:20:52;;;;;;;;;;;;;;;19.39;41.39;100323.52;101896;1313;73532;-82
2023/03/25 06:23:19;;;;;;;;;;;;;;;19.39;41.35;100322.40;101669;1314;75221;-84
2023/03/25 06:25:44;;;;;;;;;;;;;;;19.40;41.40;100325.05;101759;1308;62418;-83
2023/03/25 06:28:10;;;;;;;;;;;;;;;19.40;41.38;100322.53;101808;1308;62249;-83
2023/03/25 06:30:35;;;;;;;;;;;;;;;19.41;41.42;100320.14;101724;1309;62249;-83
2023/03/25 06:33:01;;;;;;;;;;;;;;;19.41;41.48;100316.02;101784;1314;62239;-83
2023/03/25 06:35:27;;;;;;;;;;;;;;;19.41;41.52;100315.84;101766;1310;63035;-84
2023/03/25 06:37:54;;;;;;;;;;;;;;;19.42;41.51;100315.93;101774;1315;62225;-82
2023/03/25 06:40:21;;;;;;;;;;;;;;;19.43;41.52;100311.24;101750;1311;62258;-83
2023/03/25 06:42:46;;;;;;;;;;;;;;;19.44;41.51;100311.36;101833;1308;72683;-83
2023/03/25 06:45:12;;;;;;;;;;;;;;;19.45;41.57;100312.58;101950;1314;62245;-82
2023/03/25 06:47:38;;;;;;;;;;;;;;;19.46;41.64;100312.50;101797;1308;62229;-83
2023/03/25 06:50:04;;;;;;;;;;;;;;;19.46;41.64;100315.66;101817;1308;62245;-84
2023/03/25 06:52:29;;;;;;;;;;;;;;;19.48;41.69;100313.42;101757;1311;62175;-83
2023/03/25 06:54:55;;;;;;;;;;;;;;;19.49;41.74;100312.23;101769;1314;62277;-83
2023/03/25 06:57:21;;;;;;;;;;;;;;;19.50;41.72;100308.83;101854;1314;63558;-82
2023/03/25 06:59:48;;;;;;;;;;;;;;;19.51;41.71;100305.30;102056;1308;62225;-83
2023/03/25 07:02:14;;;;;;;;;;;;;;;19.52;41.75;100305.42;102139;1312;62219;-83
2023/03/25 07:04:40;;;;;;;;;;;;;;;19.53;41.84;100304.84;101905;1314;827749;-83
2023/03/25 07:07:06;;;;;;;;;;;;;;;19.54;41.85;100302.23;102192;1308;63326;-82
2023/03/25 07:09:38;;;;;;;;;;;;;;;19.55;41.88;100300.55;101921;1314;62244;-82
2023/03/25 07:12:03;;;;;;;;;;;;;;;19.56;41.84;100298.31;101872;1309;63362;-82
2023/03/25 07:14:29;;;;;;;;;;;;;;;19.58;41.88;100296.80;101808;1314;62234;-82
2023/03/25 07:16:55;;;;;;;;;;;;;;;19.58;41.83;100296.73;101799;1311;62708;-82
2023/03/25 07:19:21;;;;;;;;;;;;;;;19.60;41.88;100296.49;101737;1315;62252;-83
2023/03/25 07:21:46;;;;;;;;;;;;;;;19.60;41.90;100294.65;101766;1314;63682;-82
2023/03/25 07:24:12;;;;;;;;;;;;;;;19.61;41.91;100297.13;101926;1308;62186;-82
2023/03/25 07:26:41;;;;;;;;;;;;;;;19.62;42.01;100297.77;101765;1314;62271;-83
2023/03/25 07:29:06;;;;;;;;;;;;;;;19.62;41.87;100300.79;101673;1308;63040;-83
2023/03/25 07:31:32;;;;;;;;;;;;;;;19.63;41.91;100296.48;101889;1311;62155;-83
2023/03/25 07:33:58;;;;;;;;;;;;;;;19.63;41.89;100291.47;101926;1309;62327;-84
2023/03/25 07:36:25;;;;;;;;;;;;;;;19.63;42.01;100288.91;101834;1310;73396;-83
2023/03/25 07:38:52;;;;;;;;;;;;;;;19.63;42.00;100289.64;101867;1314;75039;-83
2023/03/25 07:41:17;;;;;;;;;;;;;;;19.64;41.97;100289.95;101830;1313;63817;-83
2023/03/25 07:43:44;;;;;;;;;;;;;;;19.65;41.96;100292.58;101838;1308;62586;-83
2023/03/25 07:46:10;;;;;;;;;;;;;;;19.64;41.96;100293.30;101818;1313;62187;-83
2023/03/25 07:48:36;;;;;;;;;;;;;;;19.65;42.09;100292.73;101749;1308;62214;-83
2023/03/25 07:51:01;;;;;;;;;;;;;;;19.65;42.00;100288.97;101670;1314;62983;-83
2023/03/25 07:53:27;;;;;;;;;;;;;;;19.66;42.10;100286.63;101731;1308;62222;-82
2023/03/25 07:55:52;;;;;;;;;;;;;;;19.66;42.12;100288.17;101800;1313;62075;-83
2023/03/25 07:58:18;;;;;;;;;;;;;;;19.66;42.02;100289.92;101839;1308;62231;-83
2023/03/25 08:00:43;;;;;;;;;;;;;;;19.67;42.10;100294.95;101778;1314;62601;-83
2023/03/25 08:03:10;;;;;;;;;;;;;;;19.65;42.01;100291.85;101769;1314;62193;-83
2023/03/25 08:05:36;;;;;;;;;;;;;;;19.63;42.02;100292.86;101917;1308;63417;-82
2023/03/25 08:08:03;;;;;;;;;;;;;;;19.63;42.04;100291.83;101813;1314;62161;-83
2023/03/25 08:10:29;;;;;;;;;;;;;;;19.62;41.97;100285.61;101795;1314;62255;-82
2023/03/25 08:12:55;;;;;;;;;;;;;;;19.63;42.09;100282.20;101891;1314;62953;-83
2023/03/25 08:15:23;;;;;;;;;;;;;;;19.64;42.15;100276.02;101927;1308;62324;-83
2023/03/25 08:17:50;;;;;;;;;;;;;;;19.66;42.30;100270.54;101781;1308;62281;-82
2023/03/25 08:20:16;;;;;;;;;;;;;;;19.68;42.42;100272.37;101773;1314;72321;-83
2023/03/25 08:22:43;;;;;;;;;;;;;;;19.69;42.44;100271.15;101738;1314;63258;-83
2023/03/25 08:25:08;;;;;;;;;;;;;;;19.72;42.53;100273.84;101809;1308;62324;-83
2023/03/25 08:27:34;;;;;;;;;;;;;;;19.73;42.61;100278.34;101672;1318;62233;-82
2023/03/25 08:30:01;;;;;;;;;;;;;;;19.76;42.76;100273.89;101703;1311;62219;-82
2023/03/25 08:32:27;;;;;;;;;;;;;;;19.78;42.90;100273.21;101639;1315;62223;-82
2023/03/25 08:34:54;;;;;;;;;;;;;;;19.80;42.92;100268.78;101668;1316;62472;-83
2023/03/25 08:37:20;;;;;;;;;;;;;;;19.82;43.02;100263.88;101908;1317;63060;-82
2023/03/25 08:39:49;;;;;;;;;;;;;;;19.83;43.11;100259.08;101983;1314;62168;-82
2023/03/25 08:42:14;;;;;;;;;;;;;;;19.86;43.21;100256.22;101693;1317;62242;-82
2023/03/25 08:44:40;;;;;;;;;;;;;;;19.87;43.36;100251.45;101708;1316;62660;-83
2023/03/25 08:47:06;;;;;;;;;;;;;;;19.90;43.34;100250.38;101709;1311;62194;-82
2023/03/25 08:49:32;;;;;;;;;;;;;;;19.92;43.40;100247.55;101752;1311;62222;-83
2023/03/25 08:51:59;;;;;;;;;;;;;;;19.94;43.54;100239.74;101811;1318;62402;-83
2023/03/25 08:54:24;;;;;;;;;;;;;;;19.96;43.55;100234.80;101805;1311;62613;-82
2023/03/25 08:56:50;;;;;;;;;;;;;;;19.97;43.75;100231.10;101738;1311;62192;-82
2023/03/25 08:59:16;;;;;;;;;;;;;;;19.98;43.78;100228.52;101799;1313;62252;-82
2023/03/25 09:01:43;;;;;;;;;;;;;;;20.00;43.90;100225.16;101746;1314;62331;-83
2023/03/25 09:04:09;;;;;;;;;;;;;;;20.01;43.87;100229.40;101881;1310;63415;-84
2023/03/25 09:06:35;;;;;;;;;;;;;;;20.02;43.92;100228.62;102287;1308;62136;-83
2023/03/25 09:09:01;;;;;;;;;;;;;;;20.02;44.07;100229.66;102078;1309;62235;-83
2023/03/25 09:11:28;;;;;;;;;;;;;;;20.04;44.17;100226.27;101824;1314;62242;-83
2023/03/25 09:13:54;;;;;;;;;;;;;;;20.05;44.13;100221.17;102017;1314;62151;-83
2023/03/25 09:16:19;;;;;;;;;;;;;;;20.07;44.20;100216.77;101969;1309;62839;-83
2023/03/25 09:18:45;;;;;;;;;;;;;;;20.08;44.23;100215.61;102016;1314;62661;-82
2023/03/25 09:21:11;;;;;;;;;;;;;;;20.09;44.32;100213.02;102002;1314;62165;-81
2023/03/25 09:23:36;;;;;;;;;;;;;;;20.10;44.35;100210.30;102592;1309;72466;-82
2023/03/25 09:26:03;;;;;;;;;;;;;;;20.11;44.39;100212.18;102302;1314;62313;-82
2023/03/25 09:28:29;;;;;;;;;;;;;;;20.12;44.44;100210.33;102035;1314;62193;-81
2023/03/25 09:30:55;;;;;;;;;;;;;;;20.13;44.43;100213.45;102090;1314;62232;-81
2023/03/25 09:33:20;;;;;;;;;;;;;;;20.14;44.58;100208.71;102030;1314;63428;-83
2023/03/25 09:35:46;;;;;;;;;;;;;;;20.15;44.70;100204.01;101713;1314;62244;-83
2023/03/25 09:38:12;;;;;;;;;;;;;;;20.16;44.83;100208.73;102150;1313;63465;-83
2023/03/25 09:40:40;;;;;;;;;;;;;;;20.18;44.84;100202.36;101799;1313;62247;-83
2023/03/25 09:43:07;;;;;;;;;;;;;;;20.19;44.80;100200.66;101782;1309;62197;-83
2023/03/25 09:45:39;;;;;;;;;;;;;;;20.20;44.88;100199.17;101792;1313;72489;-84
2023/03/25 09:48:06;;;;;;;;;;;;;;;20.21;44.84;100190.86;101786;1313;75331;-83
2023/03/25 09:50:33;;;;;;;;;;;;;;;20.21;45.02;100190.73;101719;1311;62254;-84
2023/03/25 09:53:17;;;;;;;;;;;;;;;20.22;44.96;100188.87;101715;1308;62128;-83
2023/03/25 09:55:43;;;;;;;;;;;;;;;20.23;45.02;100186.46;101744;1317;73236;-83
2023/03/25 09:58:13;;;;;;;;;;;;;;;20.23;45.05;100184.42;101828;1314;62152;-83
2023/03/25 10:00:39;;;;;;;;;;;;;;;20.25;45.20;100182.90;101806;1311;62232;-83
2023/03/25 10:03:10;;;;;;;;;;;;;;;20.25;45.17;100182.84;101680;1314;62294;-84
2023/03/25 10:05:55;;;;;;;;;;;;;;;20.26;45.09;100179.39;101814;1313;73495;-83
2023/03/25 10:08:25;;;;;;;;;;;;;;;20.27;45.15;100185.94;101776;1315;76358;-83
2023/03/25 10:10:51;;;;;;;;;;;;;;;20.27;45.18;100176.09;101790;1314;62137;-83
2023/03/25 10:13:28;;;;;;;;;;;;;;;20.29;45.30;100171.33;101830;1308;62112;-83
2023/03/25 10:16:23;;;;;;;;;;;;;;;20.29;45.36;100169.73;101776;1314;72435;-84
2023/03/25 10:19:25;;;;;;;;;;;;;;;20.30;45.36;100173.98;101716;1322;75358;-83
2023/03/25 10:22:13;;;;;;;;;;;;;;;20.31;45.39;100175.09;101142;1320;62344;-83
2023/03/25 10:24:59;;;;;;;;;;;;;;;20.31;45.46;100169.38;100747;1320;62283;-83
2023/03/25 10:27:35;;;;;;;;;;;;;;;20.32;45.67;100164.34;100274;1332;73463;-83
2023/03/25 10:30:23;;;;;;;;;;;;;;;20.32;45.66;100160.38;100287;1329;76377;-83
2023/03/25 10:32:51;;;;;;;;;;;;;;;20.33;45.60;100154.73;99714;1339;62613;-83
2023/03/25 10:35:22;;;;;;;;;;;;;;;20.35;45.65;100154.63;99713;1335;62747;-83
2023/03/25 10:37:48;;;;;;;;;;;;;;;20.35;45.68;100150.83;99786;1339;73486;-84
2023/03/25 10:40:16;;;;;;;;;;;;;;;20.36;45.79;100146.13;99820;1339;62233;-82
2023/03/25 10:43:04;;;;;;;;;;;;;;;20.37;45.79;100143.73;99860;1335;62280;-83
2023/03/25 10:45:30;;;;;;;;;;;;;;;20.37;45.85;100143.70;99719;1340;62382;-83
2023/03/25 10:47:59;;;;;;;;;;;;;;;20.37;45.90;100136.17;99769;1341;63331;-83
2023/03/25 10:50:24;;;;;;;;;;;;;;;20.38;45.94;100133.80;99758;1340;76328;-84
2023/03/25 10:52:51;;;;;;;;;;;;;;;20.39;45.95;100130.00;99896;1335;62514;-82
2023/03/25 10:55:22;;;;;;;;;;;;;;;20.39;46.02;100121.73;100160;1337;62162;-83
2023/03/25 10:57:48;;;;;;;;;;;;;;;20.40;45.98;100114.18;100293;1330;73550;-83
2023/03/25 11:00:17;;;;;;;;;;;;;;;20.41;46.13;100116.92;100433;1333;62289;-84
2023/03/25 11:02:43;;;;;;;;;;;;;;;20.42;46.18;100105.11;100885;1324;62286;-83
2023/03/25 11:05:08;;;;;;;;;;;;;;;20.41;46.06;100099.61;100909;1320;62331;-82
2023/03/25 11:07:35;;;;;;;;;;;;;;;20.38;46.00;100098.43;100943;1324;62742;-83
2023/03/25 11:10:13;;;;;;;;;;;;;;;20.34;46.00;100094.24;101215;1316;62250;-83
2023/03/25 11:12:44;;;;;;;;;;;;;;;20.34;46.05;100090.00;101767;1310;62229;-84
2023/03/25 11:15:14;;;;;;;;;;;;;;;20.33;45.96;100090.96;101720;1314;62115;-84
2023/03/25 11:17:39;;;;;;;;;;;;;;;20.30;46.04;100086.55;101748;1313;73773;-83
2023/03/25 11:20:09;;;;;;;;;;;;;;;20.26;45.92;100082.05;101941;1314;62273;-82
2023/03/25 11:22:36;;;;;;;;;;;;;;;20.21;45.85;100079.89;102259;1311;63142;-82
2023/03/25 11:25:05;;;;;;;;;;;;;;;20.17;45.74;100069.65;101878;1311;63291;-83
2023/03/25 11:27:31;;;;;;;;;;;;;;;20.14;45.73;100065.29;101921;1311;72528;-82
2023/03/25 11:30:05;;;;;;;;;;;;;;;20.11;45.75;100061.58;101789;1318;62309;-83
2023/03/25 11:32:34;;;;;;;;;;;;;;;20.07;45.53;100057.04;101988;1310;62725;-83
2023/03/25 11:35:00;;;;;;;;;;;;;;;20.05;45.44;100052.94;101902;1312;63515;-82
2023/03/25 11:37:27;;;;;;;;;;;;;;;20.03;45.38;100049.52;101730;1315;62236;-83
2023/03/25 11:39:54;;;;;;;;;;;;;;;20.01;45.35;100048.63;101729;1311;76166;-83
2023/03/25 11:42:31;;;;;;;;;;;;;;;19.99;45.33;100044.14;101903;1311;62076;-84
2023/03/25 11:44:58;;;;;;;;;;;;;;;19.98;45.23;100038.67;102065;1311;62051;-83
2023/03/25 11:47:36;;;;;;;;;;;;;;;19.96;45.12;100027.73;101753;1314;73387;-82
2023/03/25 11:50:02;;;;;;;;;;;;;;;19.95;45.05;100021.45;101761;1314;76179;-83
2023/03/25 11:52:50;;;;;;;;;;;;;;;19.93;45.15;100019.77;101779;1317;63407;-82
2023/03/25 11:55:27;;;;;;;;;;;;;;;19.92;44.98;100013.09;101798;1313;62243;-84
2023/03/25 11:57:53;;;;;;;;;;;;;;;19.90;44.97;100007.81;101771;1310;72582;-83
2023/03/25 12:00:21;;;;;;;;;;;;;;;19.89;45.01;100007.19;101654;1317;62284;-83
2023/03/25 12:02:47;;;;;;;;;;;;;;;19.88;44.87;100002.10;101750;1310;62238;-83
2023/03/25 12:05:15;;;;;;;;;;;;;;;19.88;44.79;99998.77;101733;1312;62338;-84
2023/03/25 12:07:42;;;;;;;;;;;;;;;19.86;44.75;99998.13;101759;1310;73906;-83
2023/03/25 12:10:09;;;;;;;;;;;;;;;19.86;44.67;99995.86;101775;1314;74955;-82
2023/03/25 12:12:41;;;;;;;;;;;;;;;19.85;44.69;99997.70;101710;1314;62160;-83
2023/03/25 12:15:27;;;;;;;;;;;;;;;19.85;44.75;99989.14;101850;1308;62148;-82
2023/03/25 12:18:12;;;;;;;;;;;;;;;19.84;44.62;99987.77;101894;1311;73753;-82
2023/03/25 12:20:37;;;;;;;;;;;;;;;19.84;44.60;99986.70;101981;1314;75828;-83
2023/03/25 12:23:09;;;;;;;;;;;;;;;19.84;44.64;99986.38;101866;1313;62180;-83
2023/03/25 12:25:40;;;;;;;;;;;;;;;19.84;44.54;99987.46;101853;1309;62170;-83
2023/03/25 12:28:09;;;;;;;;;;;;;;;19.83;44.57;99978.74;101934;1314;73398;-82
2023/03/25 12:30:58;;;;;;;;;;;;;;;19.83;44.48;99973.08;101722;1308;75380;-82
2023/03/25 12:33:37;;;;;;;;;;;;;;;19.83;44.52;99974.85;101133;1319;62509;-83
2023/03/25 12:36:04;;;;;;;;;;;;;;;19.83;44.49;99969.36;101396;1318;62133;-83
2023/03/25 12:38:53;;;;;;;;;;;;;;;19.82;44.44;99963.15;101304;1319;73574;-82